sensor_id;sensor_type;location;lat;lon;timestamp;temperature;humidity
8591;DHT22;4333;48.322;14.340;2023-03-13T00:15:16;3.70;99.90
8591;DHT22;4333;48.322;14.340;2023-03-13T00:17:41;3.60;99.90
8591;DHT22;4333;48.322;14.340;2023-03-13T00:20:07;3.50;99.90
8591;DHT22;4333;48.322;14.340;2023-03-13T00:22:36;3.40;99.90
8591;DHT22;4333;48.322;14.340;2023-03-13T00:25:01;3.40;99.90
8591;DHT22;4333;48.322;14.340;2023-03-13T00:37:42;3.20;99.90
8591;DHT22;4333;48.322;14.340;2023-03-13T00:40:08;3.20;99.90
8591;DHT22;4333;48.322;14.340;2023-03-13T00:42:34;3.20;99.90
8591;DHT22;4333;48.322;14.340;2023-03-13T00:45:00;3.20;99.90
8591;DHT22;4333;48.322;14.340;2023-03-13T00:47:26;3.20;99.90
8591;DHT22;4333;48.322;14.340;2023-03-13T00:49:52;3.10;99.90
8591;DHT22;4333;48.322;14.340;2023-03-13T00:52:18;3.10;99.90
8591;DHT22;4333;48.322;14.340;2023-03-13T00:54:43;3.00;99.90
8591;DHT22;4333;48.322;14.340;2023-03-13T00:57:09;3.00;99.90
8591;DHT22;4333;48.322;14.340;2023-03-13T00:59:35;3.10;99.90
8591;DHT22;4333;48.322;14.340;2023-03-13T01:02:00;3.10;99.90
8591;DHT22;4333;48.322;14.340;2023-03-13T01:04:26;3.00;99.90
8591;DHT22;4333;48.322;14.340;2023-03-13T01:06:52;2.90;99.90
8591;DHT22;4333;48.322;14.340;2023-03-13T01:09:17;3.00;99.90
8591;DHT22;4333;48.322;14.340;2023-03-13T01:11:44;3.00;99.90
8591;DHT22;4333;48.322;14.340;2023-03-13T01:14:16;2.90;99.90
8591;DHT22;4333;48.322;14.340;2023-03-13T01:16:42;2.80;99.90
8591;DHT22;4333;48.322;14.340;2023-03-13T01:19:13;2.70;99.90
8591;DHT22;4333;48.322;14.340;2023-03-13T01:21:42;2.80;99.90
8591;DHT22;4333;48.322;14.340;2023-03-13T01:24:08;2.80;99.90
8591;DHT22;4333;48.322;14.340;2023-03-13T01:26:34;2.80;99.90
8591;DHT22;4333;48.322;14.340;2023-03-13T01:29:00;2.70;99.90
8591;DHT22;4333;48.322;14.340;2023-03-13T01:31:28;2.70;99.90
8591;DHT22;4333;48.322;14.340;2023-03-13T01:33:56;2.60;99.90
8591;DHT22;4333;48.322;14.340;2023-03-13T01:36:23;2.60;99.90
8591;DHT22;4333;48.322;14.340;2023-03-13T01:38:54;2.60;99.90
8591;DHT22;4333;48.322;14.340;2023-03-13T01:41:20;2.50;99.90
8591;DHT22;4333;48.322;14.340;2023-03-13T01:43:47;2.50;99.90
8591;DHT22;4333;48.322;14.340;2023-03-13T01:46:14;2.50;99.90
8591;DHT22;4333;48.322;14.340;2023-03-13T01:48:49;2.40;99.90
8591;DHT22;4333;48.322;14.340;2023-03-13T01:51:41;2.40;99.90
8591;DHT22;4333;48.322;14.340;2023-03-13T01:54:23;2.30;99.90
8591;DHT22;4333;48.322;14.340;2023-03-13T01:57:00;2.20;99.90
8591;DHT22;4333;48.322;14.340;2023-03-13T01:59:34;2.20;99.90
8591;DHT22;4333;48.322;14.340;2023-03-13T02:02:03;2.20;99.90
8591;DHT22;4333;48.322;14.340;2023-03-13T02:04:38;2.10;99.90
8591;DHT22;4333;48.322;14.340;2023-03-13T02:07:10;2.10;99.90
8591;DHT22;4333;48.322;14.340;2023-03-13T02:09:39;2.10;99.90
8591;DHT22;4333;48.322;14.340;2023-03-13T02:12:15;2.00;99.90
8591;DHT22;4333;48.322;14.340;2023-03-13T02:14:44;2.00;99.90
8591;DHT22;4333;48.322;14.340;2023-03-13T02:17:12;2.10;99.90
8591;DHT22;4333;48.322;14.340;2023-03-13T02:19:48;2.00;99.90
8591;DHT22;4333;48.322;14.340;2023-03-13T02:27:38;2.00;99.90
8591;DHT22;4333;48.322;14.340;2023-03-13T02:30:06;2.00;99.90
8591;DHT22;4333;48.322;14.340;2023-03-13T02:32:33;2.00;99.90
8591;DHT22;4333;48.322;14.340;2023-03-13T02:35:03;2.00;99.90
8591;DHT22;4333;48.322;14.340;2023-03-13T02:37:31;2.00;99.90
8591;DHT22;4333;48.322;14.340;2023-03-13T02:40:01;2.00;99.90
8591;DHT22;4333;48.322;14.340;2023-03-13T02:42:31;1.90;99.90
8591;DHT22;4333;48.322;14.340;2023-03-13T02:44:59;1.80;99.90
8591;DHT22;4333;48.322;14.340;2023-03-13T02:47:25;1.80;99.90
8591;DHT22;4333;48.322;14.340;2023-03-13T02:49:53;1.90;99.90
8591;DHT22;4333;48.322;14.340;2023-03-13T02:54:50;1.70;99.90
8591;DHT22;4333;48.322;14.340;2023-03-13T02:57:19;1.60;99.90
8591;DHT22;4333;48.322;14.340;2023-03-13T02:59:45;1.60;99.90
8591;DHT22;4333;48.322;14.340;2023-03-13T03:02:10;1.60;99.90
8591;DHT22;4333;48.322;14.340;2023-03-13T03:04:36;1.60;99.90
8591;DHT22;4333;48.322;14.340;2023-03-13T03:07:04;1.60;99.90
8591;DHT22;4333;48.322;14.340;2023-03-13T03:09:30;1.60;99.90
8591;DHT22;4333;48.322;14.340;2023-03-13T03:11:55;1.50;99.90
8591;DHT22;4333;48.322;14.340;2023-03-13T03:14:21;1.40;99.90
8591;DHT22;4333;48.322;14.340;2023-03-13T03:16:47;1.40;99.90
8591;DHT22;4333;48.322;14.340;2023-03-13T03:19:15;1.50;99.90
8591;DHT22;4333;48.322;14.340;2023-03-13T03:21:41;1.40;99.90
8591;DHT22;4333;48.322;14.340;2023-03-13T03:24:10;1.50;99.90
8591;DHT22;4333;48.322;14.340;2023-03-13T03:26:36;1.50;99.90
8591;DHT22;4333;48.322;14.340;2023-03-13T03:29:02;1.40;99.90
8591;DHT22;4333;48.322;14.340;2023-03-13T03:31:29;1.40;99.90
8591;DHT22;4333;48.322;14.340;2023-03-13T03:33:56;1.40;99.90
8591;DHT22;4333;48.322;14.340;2023-03-13T03:36:22;1.60;99.90
8591;DHT22;4333;48.322;14.340;2023-03-13T03:38:49;1.50;99.90
8591;DHT22;4333;48.322;14.340;2023-03-13T03:41:15;1.50;99.90
8591;DHT22;4333;48.322;14.340;2023-03-13T03:43:42;1.40;99.90
8591;DHT22;4333;48.322;14.340;2023-03-13T03:46:08;1.40;99.90
8591;DHT22;4333;48.322;14.340;2023-03-13T03:48:36;1.40;99.90
8591;DHT22;4333;48.322;14.340;2023-03-13T03:51:02;1.40;99.90
8591;DHT22;4333;48.322;14.340;2023-03-13T03:53:28;1.50;99.90
8591;DHT22;4333;48.322;14.340;2023-03-13T03:55:54;1.50;99.90
8591;DHT22;4333;48.322;14.340;2023-03-13T03:58:22;1.50;99.90
8591;DHT22;4333;48.322;14.340;2023-03-13T04:00:48;1.40;99.90
8591;DHT22;4333;48.322;14.340;2023-03-13T04:03:14;1.40;99.90
8591;DHT22;4333;48.322;14.340;2023-03-13T04:05:40;1.40;99.90
8591;DHT22;4333;48.322;14.340;2023-03-13T04:08:06;1.50;99.90
8591;DHT22;4333;48.322;14.340;2023-03-13T04:10:35;1.60;99.90
8591;DHT22;4333;48.322;14.340;2023-03-13T04:13:00;1.60;99.90
8591;DHT22;4333;48.322;14.340;2023-03-13T04:15:26;1.70;99.90
8591;DHT22;4333;48.322;14.340;2023-03-13T04:17:52;1.70;99.90
8591;DHT22;4333;48.322;14.340;2023-03-13T04:20:17;1.60;99.90
8591;DHT22;4333;48.322;14.340;2023-03-13T04:22:43;1.60;99.90
8591;DHT22;4333;48.322;14.340;2023-03-13T04:25:09;1.70;99.90
8591;DHT22;4333;48.322;14.340;2023-03-13T04:27:35;1.80;99.90
8591;DHT22;4333;48.322;14.340;2023-03-13T04:30:01;1.90;99.90
8591;DHT22;4333;48.322;14.340;2023-03-13T04:32:27;1.80;99.90
8591;DHT22;4333;48.322;14.340;2023-03-13T04:34:53;1.90;99.90
8591;DHT22;4333;48.322;14.340;2023-03-13T04:37:19;1.80;99.90
8591;DHT22;4333;48.322;14.340;2023-03-13T04:39:44;1.90;99.90
8591;DHT22;4333;48.322;14.340;2023-03-13T04:42:11;1.90;99.90
8591;DHT22;4333;48.322;14.340;2023-03-13T04:44:36;1.90;99.90
8591;DHT22;4333;48.322;14.340;2023-03-13T04:47:02;1.90;99.90
8591;DHT22;4333;48.322;14.340;2023-03-13T04:49:28;1.90;99.90
8591;DHT22;4333;48.322;14.340;2023-03-13T04:51:54;1.90;99.90
8591;DHT22;4333;48.322;14.340;2023-03-13T04:54:20;2.00;99.90
8591;DHT22;4333;48.322;14.340;2023-03-13T04:56:46;2.00;99.90
8591;DHT22;4333;48.322;14.340;2023-03-13T04:59:13;1.90;99.90
8591;DHT22;4333;48.322;14.340;2023-03-13T05:01:40;1.90;99.90
8591;DHT22;4333;48.322;14.340;2023-03-13T05:04:05;1.90;99.90
8591;DHT22;4333;48.322;14.340;2023-03-13T05:06:31;2.00;99.90
8591;DHT22;4333;48.322;14.340;2023-03-13T05:08:57;2.10;99.90
8591;DHT22;4333;48.322;14.340;2023-03-13T05:11:23;2.10;99.90
8591;DHT22;4333;48.322;14.340;2023-03-13T05:13:48;2.00;99.90
8591;DHT22;4333;48.322;14.340;2023-03-13T05:16:16;2.00;99.90
8591;DHT22;4333;48.322;14.340;2023-03-13T05:18:44;2.00;99.90
8591;DHT22;4333;48.322;14.340;2023-03-13T05:21:10;1.90;99.90
8591;DHT22;4333;48.322;14.340;2023-03-13T05:23:36;2.00;99.90
8591;DHT22;4333;48.322;14.340;2023-03-13T05:26:02;2.00;99.90
8591;DHT22;4333;48.322;14.340;2023-03-13T05:28:27;2.00;99.90
8591;DHT22;4333;48.322;14.340;2023-03-13T05:30:53;2.00;99.90
8591;DHT22;4333;48.322;14.340;2023-03-13T05:33:19;2.10;99.90
8591;DHT22;4333;48.322;14.340;2023-03-13T05:35:45;2.20;99.90
8591;DHT22;4333;48.322;14.340;2023-03-13T05:38:12;2.30;99.90
8591;DHT22;4333;48.322;14.340;2023-03-13T05:40:38;2.30;99.90
8591;DHT22;4333;48.322;14.340;2023-03-13T05:43:04;2.50;99.90
8591;DHT22;4333;48.322;14.340;2023-03-13T05:45:30;2.60;99.90
8591;DHT22;4333;48.322;14.340;2023-03-13T05:47:56;2.60;99.90
8591;DHT22;4333;48.322;14.340;2023-03-13T05:50:23;2.60;99.90
8591;DHT22;4333;48.322;14.340;2023-03-13T05:52:49;2.50;99.90
8591;DHT22;4333;48.322;14.340;2023-03-13T05:55:16;2.50;99.90
8591;DHT22;4333;48.322;14.340;2023-03-13T05:57:46;2.70;99.90
8591;DHT22;4333;48.322;14.340;2023-03-13T06:00:13;2.70;99.90
8591;DHT22;4333;48.322;14.340;2023-03-13T06:02:40;2.70;99.90
8591;DHT22;4333;48.322;14.340;2023-03-13T06:05:07;2.80;99.90
8591;DHT22;4333;48.322;14.340;2023-03-13T06:07:35;2.80;99.90
8591;DHT22;4333;48.322;14.340;2023-03-13T06:10:04;2.80;99.90
8591;DHT22;4333;48.322;14.340;2023-03-13T06:12:30;2.80;99.90
8591;DHT22;4333;48.322;14.340;2023-03-13T06:14:56;2.80;99.90
8591;DHT22;4333;48.322;14.340;2023-03-13T06:17:21;2.90;99.90
8591;DHT22;4333;48.322;14.340;2023-03-13T06:19:47;2.90;99.90
8591;DHT22;4333;48.322;14.340;2023-03-13T06:22:15;3.00;99.90
8591;DHT22;4333;48.322;14.340;2023-03-13T06:24:41;3.00;99.90
8591;DHT22;4333;48.322;14.340;2023-03-13T06:27:09;3.10;99.90
8591;DHT22;4333;48.322;14.340;2023-03-13T06:29:35;3.10;99.90
8591;DHT22;4333;48.322;14.340;2023-03-13T06:32:00;3.10;99.90
8591;DHT22;4333;48.322;14.340;2023-03-13T06:34:26;3.10;99.90
8591;DHT22;4333;48.322;14.340;2023-03-13T06:36:52;3.10;99.90
8591;DHT22;4333;48.322;14.340;2023-03-13T06:39:18;3.20;99.90
8591;DHT22;4333;48.322;14.340;2023-03-13T06:41:43;3.20;99.90
8591;DHT22;4333;48.322;14.340;2023-03-13T06:44:09;3.30;99.90
8591;DHT22;4333;48.322;14.340;2023-03-13T06:46:35;3.40;99.90
8591;DHT22;4333;48.322;14.340;2023-03-13T06:49:00;3.50;99.90
8591;DHT22;4333;48.322;14.340;2023-03-13T06:51:29;3.50;99.90
8591;DHT22;4333;48.322;14.340;2023-03-13T06:53:55;3.60;99.90
8591;DHT22;4333;48.322;14.340;2023-03-13T06:56:20;3.70;99.90
8591;DHT22;4333;48.322;14.340;2023-03-13T06:58:48;3.80;99.90
8591;DHT22;4333;48.322;14.340;2023-03-13T07:01:15;3.80;99.90
8591;DHT22;4333;48.322;14.340;2023-03-13T07:03:41;4.00;99.90
8591;DHT22;4333;48.322;14.340;2023-03-13T07:06:08;4.10;99.90
8591;DHT22;4333;48.322;14.340;2023-03-13T07:08:35;4.20;99.90
8591;DHT22;4333;48.322;14.340;2023-03-13T07:11:03;4.30;99.90
8591;DHT22;4333;48.322;14.340;2023-03-13T07:13:30;4.40;99.90
8591;DHT22;4333;48.322;14.340;2023-03-13T07:16:02;4.50;99.90
8591;DHT22;4333;48.322;14.340;2023-03-13T07:18:32;4.60;99.90
8591;DHT22;4333;48.322;14.340;2023-03-13T07:20:59;4.80;99.90
8591;DHT22;4333;48.322;14.340;2023-03-13T07:23:29;5.00;99.90
8591;DHT22;4333;48.322;14.340;2023-03-13T07:25:57;5.30;99.90
8591;DHT22;4333;48.322;14.340;2023-03-13T07:28:29;5.40;99.90
8591;DHT22;4333;48.322;14.340;2023-03-13T07:31:03;5.50;99.90
8591;DHT22;4333;48.322;14.340;2023-03-13T07:33:29;5.60;99.90
8591;DHT22;4333;48.322;14.340;2023-03-13T07:35:57;5.70;99.90
8591;DHT22;4333;48.322;14.340;2023-03-13T07:38:23;5.70;99.90
8591;DHT22;4333;48.322;14.340;2023-03-13T07:51:25;6.40;99.90
8591;DHT22;4333;48.322;14.340;2023-03-13T07:53:51;7.00;99.90
8591;DHT22;4333;48.322;14.340;2023-03-13T07:56:22;7.70;99.90
8591;DHT22;4333;48.322;14.340;2023-03-13T07:58:48;7.80;99.90
8591;DHT22;4333;48.322;14.340;2023-03-13T08:01:21;7.80;99.90
8591;DHT22;4333;48.322;14.340;2023-03-13T08:03:53;7.80;99.90
8591;DHT22;4333;48.322;14.340;2023-03-13T08:06:24;7.80;99.90
8591;DHT22;4333;48.322;14.340;2023-03-13T08:08:51;7.60;99.90
8591;DHT22;4333;48.322;14.340;2023-03-13T08:11:19;7.60;99.90
8591;DHT22;4333;48.322;14.340;2023-03-13T08:13:46;7.60;99.90
8591;DHT22;4333;48.322;14.340;2023-03-13T08:16:17;7.20;99.90
8591;DHT22;4333;48.322;14.340;2023-03-13T08:18:45;7.00;99.90
8591;DHT22;4333;48.322;14.340;2023-03-13T08:21:16;6.90;99.90
8591;DHT22;4333;48.322;14.340;2023-03-13T08:23:42;7.10;99.90
8591;DHT22;4333;48.322;14.340;2023-03-13T08:26:18;7.10;99.90
8591;DHT22;4333;48.322;14.340;2023-03-13T08:28:46;7.00;99.90
8591;DHT22;4333;48.322;14.340;2023-03-13T08:31:14;7.00;99.90
8591;DHT22;4333;48.322;14.340;2023-03-13T08:33:45;7.20;99.90
8591;DHT22;4333;48.322;14.340;2023-03-13T08:38:45;8.20;99.90
8591;DHT22;4333;48.322;14.340;2023-03-13T08:41:22;8.60;99.90
8591;DHT22;4333;48.322;14.340;2023-03-13T08:43:54;8.90;99.90
8591;DHT22;4333;48.322;14.340;2023-03-13T08:46:21;8.70;99.90
8591;DHT22;4333;48.322;14.340;2023-03-13T08:48:51;8.60;99.90
8591;DHT22;4333;48.322;14.340;2023-03-13T08:51:18;8.30;99.90
8591;DHT22;4333;48.322;14.340;2023-03-13T08:53:44;8.00;99.90
8591;DHT22;4333;48.322;14.340;2023-03-13T08:56:13;8.00;99.90
8591;DHT22;4333;48.322;14.340;2023-03-13T08:58:39;8.20;99.90
8591;DHT22;4333;48.322;14.340;2023-03-13T09:01:13;8.20;99.90
8591;DHT22;4333;48.322;14.340;2023-03-13T09:03:39;8.20;99.90
8591;DHT22;4333;48.322;14.340;2023-03-13T09:06:06;8.40;99.90
8591;DHT22;4333;48.322;14.340;2023-03-13T09:08:32;8.50;99.90
8591;DHT22;4333;48.322;14.340;2023-03-13T09:10:59;8.50;99.90
8591;DHT22;4333;48.322;14.340;2023-03-13T09:13:27;8.70;99.90
8591;DHT22;4333;48.322;14.340;2023-03-13T09:16:04;8.70;99.90
8591;DHT22;4333;48.322;14.340;2023-03-13T09:18:30;8.50;99.90
8591;DHT22;4333;48.322;14.340;2023-03-13T09:20:56;8.40;99.90
8591;DHT22;4333;48.322;14.340;2023-03-13T09:23:25;8.50;99.90
8591;DHT22;4333;48.322;14.340;2023-03-13T09:25:55;8.60;99.90
8591;DHT22;4333;48.322;14.340;2023-03-13T09:28:22;8.80;99.90
8591;DHT22;4333;48.322;14.340;2023-03-13T09:30:48;8.80;99.90
8591;DHT22;4333;48.322;14.340;2023-03-13T09:33:15;8.60;99.00
8591;DHT22;4333;48.322;14.340;2023-03-13T09:35:41;8.60;99.90
8591;DHT22;4333;48.322;14.340;2023-03-13T09:38:08;8.60;99.90
8591;DHT22;4333;48.322;14.340;2023-03-13T09:40:48;8.80;99.90
8591;DHT22;4333;48.322;14.340;2023-03-13T09:45:48;9.00;99.60
8591;DHT22;4333;48.322;14.340;2023-03-13T09:48:40;9.10;99.90
8591;DHT22;4333;48.322;14.340;2023-03-13T09:55:59;9.40;93.40
8591;DHT22;4333;48.322;14.340;2023-03-13T09:58:27;9.50;94.60
8591;DHT22;4333;48.322;14.340;2023-03-13T10:01:04;9.70;92.90
8591;DHT22;4333;48.322;14.340;2023-03-13T10:06:03;10.00;91.90
8591;DHT22;4333;48.322;14.340;2023-03-13T10:08:33;10.10;90.60
8591;DHT22;4333;48.322;14.340;2023-03-13T10:11:10;10.20;90.10
8591;DHT22;4333;48.322;14.340;2023-03-13T10:13:53;10.40;82.70
8591;DHT22;4333;48.322;14.340;2023-03-13T10:18:55;10.50;77.60
8591;DHT22;4333;48.322;14.340;2023-03-13T10:21:29;10.50;72.90
8591;DHT22;4333;48.322;14.340;2023-03-13T10:26:29;10.50;73.00
8591;DHT22;4333;48.322;14.340;2023-03-13T10:29:00;10.50;73.50
8591;DHT22;4333;48.322;14.340;2023-03-13T10:31:31;10.60;74.30
8591;DHT22;4333;48.322;14.340;2023-03-13T10:34:09;10.70;75.40
8591;DHT22;4333;48.322;14.340;2023-03-13T10:36:40;10.70;73.70
8591;DHT22;4333;48.322;14.340;2023-03-13T10:39:12;10.70;74.20
8591;DHT22;4333;48.322;14.340;2023-03-13T10:41:38;10.80;76.10
8591;DHT22;4333;48.322;14.340;2023-03-13T10:44:13;10.90;76.80
8591;DHT22;4333;48.322;14.340;2023-03-13T10:46:46;10.90;75.10
8591;DHT22;4333;48.322;14.340;2023-03-13T10:49:23;11.00;73.40
8591;DHT22;4333;48.322;14.340;2023-03-13T10:51:54;11.00;67.00
8591;DHT22;4333;48.322;14.340;2023-03-13T10:54:23;10.80;69.40
8591;DHT22;4333;48.322;14.340;2023-03-13T10:56:51;10.90;69.40
8591;DHT22;4333;48.322;14.340;2023-03-13T10:59:24;11.10;69.30
8591;DHT22;4333;48.322;14.340;2023-03-13T11:01:51;11.30;67.20
8591;DHT22;4333;48.322;14.340;2023-03-13T11:04:35;11.40;65.70
8591;DHT22;4333;48.322;14.340;2023-03-13T11:07:09;11.60;64.20
8591;DHT22;4333;48.322;14.340;2023-03-13T11:09:36;11.90;62.70
8591;DHT22;4333;48.322;14.340;2023-03-13T11:12:07;12.00;58.10
8591;DHT22;4333;48.322;14.340;2023-03-13T11:14:37;12.10;56.30
8591;DHT22;4333;48.322;14.340;2023-03-13T11:22:28;12.30;51.30
8591;DHT22;4333;48.322;14.340;2023-03-13T11:35:44;12.20;44.50
8591;DHT22;4333;48.322;14.340;2023-03-13T11:38:22;12.20;49.30
8591;DHT22;4333;48.322;14.340;2023-03-13T11:41:10;12.40;48.70
8591;DHT22;4333;48.322;14.340;2023-03-13T11:43:47;12.60;47.30
8591;DHT22;4333;48.322;14.340;2023-03-13T11:46:24;12.80;47.00
8591;DHT22;4333;48.322;14.340;2023-03-13T11:57:13;13.10;39.20
8591;DHT22;4333;48.322;14.340;2023-03-13T12:02:39;13.40;41.70
8591;DHT22;4333;48.322;14.340;2023-03-13T12:05:09;13.70;38.70
8591;DHT22;4333;48.322;14.340;2023-03-13T12:08:20;13.80;35.50
8591;DHT22;4333;48.322;14.340;2023-03-13T12:13:29;14.10;29.70
8591;DHT22;4333;48.322;14.340;2023-03-13T12:15:59;13.60;28.10
8591;DHT22;4333;48.322;14.340;2023-03-13T12:18:32;13.30;29.50
8591;DHT22;4333;48.322;14.340;2023-03-13T12:29:23;12.80;30.70
8591;DHT22;4333;48.322;14.340;2023-03-13T12:32:12;13.00;34.20
8591;DHT22;4333;48.322;14.340;2023-03-13T12:34:45;13.40;29.90
8591;DHT22;4333;48.322;14.340;2023-03-13T12:39:58;13.20;33.00
8591;DHT22;4333;48.322;14.340;2023-03-13T12:42:48;13.10;32.50
8591;DHT22;4333;48.322;14.340;2023-03-13T12:45:21;12.80;33.30
8591;DHT22;4333;48.322;14.340;2023-03-13T13:01:34;13.70;30.80
8591;DHT22;4333;48.322;14.340;2023-03-13T13:09:34;14.20;28.50
8591;DHT22;4333;48.322;14.340;2023-03-13T13:12:18;14.50;25.70
8591;DHT22;4333;48.322;14.340;2023-03-13T13:19:51;14.80;22.10
8591;DHT22;4333;48.322;14.340;2023-03-13T13:30:27;15.70;14.20
8591;DHT22;4333;48.322;14.340;2023-03-13T13:32:56;15.70;12.70
8591;DHT22;4333;48.322;14.340;2023-03-13T13:35:38;15.80;12.40
8591;DHT22;4333;48.322;14.340;2023-03-13T13:41:01;16.20;6.40
8591;DHT22;4333;48.322;14.340;2023-03-13T13:46:43;16.40;2.80
8591;DHT22;4333;48.322;14.340;2023-03-13T13:49:17;16.70;1.00
8591;DHT22;4333;48.322;14.340;2023-03-13T13:57:19;17.10;1.00
8591;DHT22;4333;48.322;14.340;2023-03-13T13:59:50;17.30;1.00
8591;DHT22;4333;48.322;14.340;2023-03-13T14:02:25;17.50;1.00
8591;DHT22;4333;48.322;14.340;2023-03-13T14:15:18;18.10;1.00
8591;DHT22;4333;48.322;14.340;2023-03-13T14:27:58;17.80;1.00
8591;DHT22;4333;48.322;14.340;2023-03-13T14:30:24;17.10;1.00
8591;DHT22;4333;48.322;14.340;2023-03-13T14:32:51;16.90;1.00
8591;DHT22;4333;48.322;14.340;2023-03-13T14:35:18;16.30;1.00
8591;DHT22;4333;48.322;14.340;2023-03-13T14:37:50;16.40;1.00
8591;DHT22;4333;48.322;14.340;2023-03-13T14:40:26;16.50;1.00
8591;DHT22;4333;48.322;14.340;2023-03-13T14:53:16;17.40;1.00
8591;DHT22;4333;48.322;14.340;2023-03-13T14:55:44;17.60;1.00
8591;DHT22;4333;48.322;14.340;2023-03-13T15:00:47;17.20;1.00
8591;DHT22;4333;48.322;14.340;2023-03-13T15:05:46;17.30;1.00
8591;DHT22;4333;48.322;14.340;2023-03-13T15:08:17;17.30;1.00
8591;DHT22;4333;48.322;14.340;2023-03-13T15:10:44;17.30;1.00
8591;DHT22;4333;48.322;14.340;2023-03-13T15:13:23;17.20;1.00
8591;DHT22;4333;48.322;14.340;2023-03-13T15:15:52;17.30;1.00
8591;DHT22;4333;48.322;14.340;2023-03-13T15:20:52;17.50;1.00
8591;DHT22;4333;48.322;14.340;2023-03-13T15:23:19;17.50;1.00
8591;DHT22;4333;48.322;14.340;2023-03-13T15:25:46;17.10;1.00
8591;DHT22;4333;48.322;14.340;2023-03-13T15:28:20;16.70;1.00
8591;DHT22;4333;48.322;14.340;2023-03-13T15:30:48;16.70;1.00
8591;DHT22;4333;48.322;14.340;2023-03-13T15:33:20;16.70;1.00
8591;DHT22;4333;48.322;14.340;2023-03-13T15:35:49;16.70;1.00
8591;DHT22;4333;48.322;14.340;2023-03-13T15:38:26;16.70;1.00
8591;DHT22;4333;48.322;14.340;2023-03-13T15:40:52;16.80;1.00
8591;DHT22;4333;48.322;14.340;2023-03-13T15:43:19;17.00;1.00
8591;DHT22;4333;48.322;14.340;2023-03-13T15:45:46;17.00;1.00
8591;DHT22;4333;48.322;14.340;2023-03-13T15:50:42;16.60;1.00
8591;DHT22;4333;48.322;14.340;2023-03-13T15:53:20;16.40;1.00
8591;DHT22;4333;48.322;14.340;2023-03-13T15:55:47;16.20;1.00
8591;DHT22;4333;48.322;14.340;2023-03-13T15:58:14;16.10;1.00
8591;DHT22;4333;48.322;14.340;2023-03-13T16:00:41;16.20;1.00
8591;DHT22;4333;48.322;14.340;2023-03-13T16:03:21;16.20;1.00
8591;DHT22;4333;48.322;14.340;2023-03-13T16:05:47;16.20;1.00
8591;DHT22;4333;48.322;14.340;2023-03-13T16:08:19;16.00;1.00
8591;DHT22;4333;48.322;14.340;2023-03-13T16:10:45;16.00;1.00
8591;DHT22;4333;48.322;14.340;2023-03-13T16:13:11;15.90;1.00
8591;DHT22;4333;48.322;14.340;2023-03-13T16:15:38;15.90;1.00
8591;DHT22;4333;48.322;14.340;2023-03-13T16:18:04;15.90;1.00
8591;DHT22;4333;48.322;14.340;2023-03-13T16:20:32;16.00;1.00
8591;DHT22;4333;48.322;14.340;2023-03-13T16:22:58;15.90;1.00
8591;DHT22;4333;48.322;14.340;2023-03-13T16:25:28;15.90;1.00
8591;DHT22;4333;48.322;14.340;2023-03-13T16:27:54;15.70;1.00
8591;DHT22;4333;48.322;14.340;2023-03-13T16:32:46;15.20;1.00
8591;DHT22;4333;48.322;14.340;2023-03-13T16:35:12;15.10;1.00
8591;DHT22;4333;48.322;14.340;2023-03-13T16:37:38;14.90;1.00
8591;DHT22;4333;48.322;14.340;2023-03-13T16:40:18;14.40;1.00
8591;DHT22;4333;48.322;14.340;2023-03-13T16:42:45;14.10;1.00
8591;DHT22;4333;48.322;14.340;2023-03-13T16:45:11;14.00;1.00
8591;DHT22;4333;48.322;14.340;2023-03-13T16:47:39;13.90;1.00
8591;DHT22;4333;48.322;14.340;2023-03-13T16:50:32;13.90;1.00
8591;DHT22;4333;48.322;14.340;2023-03-13T16:52:58;14.00;1.00
8591;DHT22;4333;48.322;14.340;2023-03-13T16:55:24;14.00;1.00
8591;DHT22;4333;48.322;14.340;2023-03-13T16:57:54;14.00;1.00
8591;DHT22;4333;48.322;14.340;2023-03-13T17:00:21;13.70;1.00
8591;DHT22;4333;48.322;14.340;2023-03-13T17:02:50;13.60;1.00
8591;DHT22;4333;48.322;14.340;2023-03-13T17:05:15;13.50;1.00
8591;DHT22;4333;48.322;14.340;2023-03-13T17:07:43;13.40;1.00
8591;DHT22;4333;48.322;14.340;2023-03-13T17:12:40;13.20;4.30
8591;DHT22;4333;48.322;14.340;2023-03-13T17:15:06;13.00;4.70
8591;DHT22;4333;48.322;14.340;2023-03-13T17:17:33;12.80;5.80
8591;DHT22;4333;48.322;14.340;2023-03-13T17:19:59;12.60;7.50
8591;DHT22;4333;48.322;14.340;2023-03-13T17:22:24;12.40;9.60
8591;DHT22;4333;48.322;14.340;2023-03-13T17:24:50;12.40;10.60
8591;DHT22;4333;48.322;14.340;2023-03-13T17:27:18;12.30;11.50
8591;DHT22;4333;48.322;14.340;2023-03-13T17:29:44;12.30;12.00
8591;DHT22;4333;48.322;14.340;2023-03-13T17:32:13;12.10;13.60
8591;DHT22;4333;48.322;14.340;2023-03-13T17:34:39;12.00;14.50
8591;DHT22;4333;48.322;14.340;2023-03-13T17:37:16;11.80;15.80
8591;DHT22;4333;48.322;14.340;2023-03-13T17:39:42;11.70;17.00
8591;DHT22;4333;48.322;14.340;2023-03-13T17:42:11;11.60;18.60
8591;DHT22;4333;48.322;14.340;2023-03-13T17:44:36;11.50;18.60
8591;DHT22;4333;48.322;14.340;2023-03-13T17:47:25;11.60;19.10
8591;DHT22;4333;48.322;14.340;2023-03-13T17:49:51;11.50;19.30
8591;DHT22;4333;48.322;14.340;2023-03-13T17:52:17;11.60;19.30
8591;DHT22;4333;48.322;14.340;2023-03-13T17:54:43;11.60;19.80
8591;DHT22;4333;48.322;14.340;2023-03-13T17:57:20;11.60;20.10
8591;DHT22;4333;48.322;14.340;2023-03-13T17:59:46;11.60;20.00
8591;DHT22;4333;48.322;14.340;2023-03-13T18:02:16;11.60;20.30
8591;DHT22;4333;48.322;14.340;2023-03-13T18:04:42;11.50;20.00
8591;DHT22;4333;48.322;14.340;2023-03-13T18:07:22;11.40;20.70
8591;DHT22;4333;48.322;14.340;2023-03-13T18:09:49;11.40;21.60
8591;DHT22;4333;48.322;14.340;2023-03-13T18:12:15;11.40;21.10
8591;DHT22;4333;48.322;14.340;2023-03-13T18:14:41;11.40;21.60
8591;DHT22;4333;48.322;14.340;2023-03-13T18:17:19;11.40;22.70
8591;DHT22;4333;48.322;14.340;2023-03-13T18:19:46;11.30;24.60
8591;DHT22;4333;48.322;14.340;2023-03-13T18:22:14;11.20;25.20
8591;DHT22;4333;48.322;14.340;2023-03-13T18:24:41;11.10;26.50
8591;DHT22;4333;48.322;14.340;2023-03-13T18:27:18;11.00;27.90
8591;DHT22;4333;48.322;14.340;2023-03-13T18:29:46;11.00;29.70
8591;DHT22;4333;48.322;14.340;2023-03-13T18:32:14;11.00;31.70
8591;DHT22;4333;48.322;14.340;2023-03-13T18:34:40;11.10;31.80
8591;DHT22;4333;48.322;14.340;2023-03-13T18:37:28;11.10;32.00
8591;DHT22;4333;48.322;14.340;2023-03-13T18:39:55;11.20;32.40
8591;DHT22;4333;48.322;14.340;2023-03-13T18:42:23;11.20;32.80
8591;DHT22;4333;48.322;14.340;2023-03-13T18:44:52;11.20;33.60
8591;DHT22;4333;48.322;14.340;2023-03-13T18:47:20;11.10;34.60
8591;DHT22;4333;48.322;14.340;2023-03-13T18:49:47;11.10;35.20
8591;DHT22;4333;48.322;14.340;2023-03-13T18:52:14;11.20;34.30
8591;DHT22;4333;48.322;14.340;2023-03-13T18:54:40;11.10;34.70
8591;DHT22;4333;48.322;14.340;2023-03-13T18:57:15;11.00;35.80
8591;DHT22;4333;48.322;14.340;2023-03-13T18:59:42;11.00;36.50
8591;DHT22;4333;48.322;14.340;2023-03-13T19:02:13;11.00;36.60
8591;DHT22;4333;48.322;14.340;2023-03-13T19:04:39;11.00;36.50
8591;DHT22;4333;48.322;14.340;2023-03-13T19:07:12;10.90;35.60
8591;DHT22;4333;48.322;14.340;2023-03-13T19:09:38;10.80;36.00
8591;DHT22;4333;48.322;14.340;2023-03-13T19:12:03;10.80;34.90
8591;DHT22;4333;48.322;14.340;2023-03-13T19:14:30;10.80;34.50
8591;DHT22;4333;48.322;14.340;2023-03-13T19:16:55;10.70;33.70
8591;DHT22;4333;48.322;14.340;2023-03-13T19:19:24;10.70;34.60